createdAt,value
2019-03-31T00:01:55.857Z,23.77
2019-03-31T00:04:26.271Z,26.30
2019-03-31T00:06:56.649Z,23.10
2019-03-31T00:09:27.058Z,23.43
2019-03-31T00:11:57.305Z,24.37
2019-03-31T00:14:27.844Z,23.50
2019-03-31T00:16:58.257Z,24.83
2019-03-31T00:19:28.689Z,25.97
2019-03-31T00:21:59.066Z,23.53
2019-03-31T00:24:29.449Z,26.00
2019-03-31T00:26:59.880Z,23.90
2019-03-31T00:29:30.272Z,21.53
2019-03-31T00:32:00.606Z,23.17
2019-03-31T00:34:30.984Z,23.03
2019-03-31T00:37:01.377Z,22.03
2019-03-31T00:39:31.733Z,23.00
2019-03-31T00:42:02.197Z,20.70
2019-03-31T00:44:32.563Z,22.50
2019-03-31T00:47:02.963Z,22.73
2019-03-31T00:49:33.537Z,22.47
2019-03-31T00:52:04.008Z,21.43
2019-03-31T00:54:34.428Z,21.67
2019-03-31T00:57:04.713Z,20.40
2019-03-31T00:59:35.166Z,20.67
2019-03-31T01:02:10.339Z,20.70
2019-03-31T01:04:40.965Z,21.07
2019-03-31T01:07:11.327Z,20.77
2019-03-31T01:09:41.851Z,21.50
2019-03-31T01:12:12.633Z,21.90
2019-03-31T01:14:43.948Z,20.80
2019-03-31T01:17:18.545Z,21.77
2019-03-31T01:19:47.165Z,24.00
2019-03-31T01:22:19.255Z,22.67
2019-03-31T01:24:51.267Z,21.40
2019-03-31T01:27:21.605Z,21.30
2019-03-31T01:29:52.092Z,21.67
2019-03-31T01:32:22.555Z,22.13
2019-03-31T01:34:53.152Z,23.40
2019-03-31T01:37:23.622Z,22.50
2019-03-31T01:39:54.159Z,21.60
2019-03-31T01:42:24.544Z,21.83
2019-03-31T01:44:55.008Z,24.70
2019-03-31T01:47:25.312Z,20.43
2019-03-31T01:49:55.918Z,21.70
2019-03-31T01:52:26.257Z,20.83
2019-03-31T01:54:56.665Z,21.63
2019-03-31T01:57:26.979Z,21.83
2019-03-31T01:59:57.696Z,21.20
2019-03-31T02:02:29.977Z,21.90
2019-03-31T02:05:00.591Z,20.57
2019-03-31T02:07:30.952Z,21.30
2019-03-31T02:10:01.430Z,21.77
2019-03-31T02:12:31.904Z,20.67
2019-03-31T02:15:02.247Z,22.80
2019-03-31T02:17:32.569Z,20.27
2019-03-31T02:20:02.947Z,21.83
2019-03-31T02:22:33.367Z,21.67
2019-03-31T02:25:03.805Z,21.70
2019-03-31T02:27:34.100Z,21.57
2019-03-31T02:30:07.051Z,22.40
2019-03-31T02:32:37.364Z,20.30
2019-03-31T02:35:08.028Z,22.27
2019-03-31T02:37:38.355Z,21.53
2019-03-31T02:40:08.955Z,19.70
2019-03-31T02:42:39.298Z,23.40
2019-03-31T02:45:10.273Z,21.67
2019-03-31T02:47:40.749Z,21.13
2019-03-31T02:50:12.830Z,20.80
2019-03-31T02:52:43.191Z,21.00
2019-03-31T02:55:13.863Z,21.47
2019-03-31T02:57:44.918Z,21.83
2019-03-31T03:00:15.536Z,20.67
2019-03-31T03:02:46.213Z,21.97
2019-03-31T03:05:20.228Z,21.20
2019-03-31T03:07:49.990Z,21.13
2019-03-31T03:10:21.909Z,20.37
2019-03-31T03:12:52.858Z,20.37
2019-03-31T03:15:29.164Z,19.37
2019-03-31T03:17:59.596Z,19.47
2019-03-31T03:20:29.987Z,19.47
2019-03-31T03:23:00.506Z,19.20
2019-03-31T03:25:30.866Z,19.70
2019-03-31T03:28:01.252Z,19.80
2019-03-31T03:30:31.678Z,19.43
2019-03-31T03:33:14.884Z,20.53
2019-03-31T03:35:34.094Z,19.63
2019-03-31T03:38:04.448Z,19.83
2019-03-31T03:40:34.915Z,20.30
2019-03-31T03:43:05.243Z,20.00
2019-03-31T03:45:35.661Z,19.87
2019-03-31T03:48:06.041Z,20.47
2019-03-31T03:50:36.407Z,19.73
2019-03-31T03:53:06.786Z,19.20
2019-03-31T03:55:37.161Z,19.50
2019-03-31T03:58:07.576Z,19.47
2019-03-31T04:00:41.298Z,18.63
2019-03-31T04:03:28.663Z,17.53
2019-03-31T04:05:43.717Z,18.17
2019-03-31T04:08:14.201Z,16.60
2019-03-31T04:11:20.460Z,17.50
2019-03-31T04:13:48.111Z,17.63
2019-03-31T04:16:18.555Z,18.07
2019-03-31T04:18:48.933Z,18.33
2019-03-31T04:21:19.289Z,19.40
2019-03-31T04:23:49.715Z,16.97
2019-03-31T04:26:20.152Z,15.90
2019-03-31T04:28:50.573Z,16.23
2019-03-31T04:31:20.899Z,15.30
2019-03-31T04:33:52.821Z,15.93
2019-03-31T04:36:23.530Z,14.37
2019-03-31T04:38:53.945Z,14.60
2019-03-31T04:41:24.341Z,14.13
2019-03-31T04:43:54.657Z,14.20
2019-03-31T04:46:25.093Z,14.57
2019-03-31T04:48:55.496Z,13.63
2019-03-31T04:51:25.862Z,13.97
2019-03-31T04:53:56.254Z,14.10
2019-03-31T04:56:26.542Z,13.20
2019-03-31T04:58:56.972Z,13.07
2019-03-31T05:01:27.292Z,13.23
2019-03-31T05:04:04.506Z,12.47
2019-03-31T05:06:29.863Z,15.63
2019-03-31T05:09:00.163Z,14.27
2019-03-31T05:11:30.534Z,14.90
2019-03-31T05:14:00.859Z,13.40
2019-03-31T05:16:31.267Z,12.50
2019-03-31T05:19:01.645Z,12.60
2019-03-31T05:21:31.962Z,11.77
2019-03-31T05:24:02.337Z,11.87
2019-03-31T05:26:32.651Z,11.33
2019-03-31T05:29:03.073Z,12.13
2019-03-31T05:31:33.419Z,10.03
2019-03-31T05:34:18.151Z,12.77
2019-03-31T05:36:35.834Z,8.33
2019-03-31T05:39:07.931Z,8.60
2019-03-31T05:41:38.355Z,9.93
2019-03-31T05:44:08.772Z,8.47
2019-03-31T05:46:39.083Z,8.20
2019-03-31T05:49:09.481Z,8.60
2019-03-31T05:51:39.810Z,8.33
2019-03-31T05:54:10.215Z,8.13
2019-03-31T05:56:40.566Z,8.97
2019-03-31T05:59:11.023Z,7.67
2019-03-31T06:01:41.303Z,7.03
2019-03-31T06:04:11.708Z,7.23
2019-03-31T06:06:42.009Z,7.00
2019-03-31T06:09:12.713Z,8.87
2019-03-31T06:11:43.115Z,8.20
2019-03-31T06:14:13.398Z,10.53
2019-03-31T06:16:43.806Z,12.93
2019-03-31T06:19:14.160Z,12.77
2019-03-31T06:21:44.564Z,10.83
2019-03-31T06:24:14.876Z,9.30
2019-03-31T06:26:45.237Z,9.27
2019-03-31T06:29:15.684Z,8.57
2019-03-31T06:31:46.244Z,9.43
2019-03-31T06:34:16.516Z,6.90
2019-03-31T06:36:46.881Z,7.10
2019-03-31T06:39:17.249Z,6.57
2019-03-31T06:41:47.567Z,6.67
2019-03-31T06:44:17.951Z,6.70
2019-03-31T06:46:48.263Z,6.70
2019-03-31T06:49:18.595Z,6.20
2019-03-31T06:51:48.992Z,6.50
2019-03-31T06:54:19.289Z,7.67
2019-03-31T06:56:49.618Z,6.43
2019-03-31T06:59:19.946Z,6.47
2019-03-31T07:01:50.271Z,7.07
2019-03-31T07:04:20.562Z,6.43
2019-03-31T07:06:50.967Z,5.60
2019-03-31T07:09:21.368Z,5.60
2019-03-31T07:11:51.708Z,5.97
2019-03-31T07:14:22.089Z,5.30
2019-03-31T07:16:52.376Z,5.33
2019-03-31T07:19:22.761Z,5.67
2019-03-31T07:21:53.148Z,5.77
2019-03-31T07:24:23.601Z,5.80
2019-03-31T07:26:53.884Z,5.40
2019-03-31T07:29:24.284Z,8.07
2019-03-31T07:31:54.696Z,5.53
2019-03-31T07:34:25.070Z,5.30
2019-03-31T07:36:55.558Z,5.27
2019-03-31T07:39:25.851Z,4.10
2019-03-31T07:41:56.271Z,4.17
2019-03-31T07:44:26.771Z,5.37
2019-03-31T07:46:57.126Z,3.70
2019-03-31T07:49:27.545Z,3.87
2019-03-31T07:51:57.909Z,4.53
2019-03-31T07:54:28.284Z,3.90
2019-03-31T07:56:58.665Z,3.73
2019-03-31T07:59:29.046Z,4.47
2019-03-31T08:01:59.373Z,5.60
2019-03-31T08:04:29.665Z,4.30
2019-03-31T08:07:00.012Z,4.40
2019-03-31T08:09:30.352Z,3.90
2019-03-31T08:12:00.714Z,4.10
2019-03-31T08:14:31.181Z,4.13
2019-03-31T08:17:01.461Z,4.97
2019-03-31T08:19:31.865Z,4.93
2019-03-31T08:22:02.290Z,4.00
2019-03-31T08:24:43.259Z,5.77
2019-03-31T08:27:15.383Z,4.37
2019-03-31T08:29:49.674Z,4.30
2019-03-31T08:32:17.766Z,4.07
2019-03-31T08:34:48.150Z,4.43
2019-03-31T08:37:18.431Z,4.90
2019-03-31T08:39:48.937Z,4.50
2019-03-31T08:42:19.375Z,5.80
2019-03-31T08:44:49.887Z,4.40
2019-03-31T08:47:20.704Z,4.43
2019-03-31T08:49:51.048Z,4.50
2019-03-31T08:52:21.504Z,5.00
2019-03-31T08:54:51.888Z,6.33
2019-03-31T08:57:22.207Z,4.63
2019-03-31T08:59:52.577Z,5.27
2019-03-31T09:02:34.553Z,5.63
2019-03-31T09:05:06.110Z,5.60
2019-03-31T09:07:36.608Z,6.37
2019-03-31T09:10:10.188Z,5.73
2019-03-31T09:12:40.601Z,5.90
2019-03-31T09:15:12.931Z,6.30
2019-03-31T09:17:43.404Z,6.27
2019-03-31T09:20:14.766Z,6.80
2019-03-31T09:22:45.071Z,6.23
2019-03-31T09:25:15.512Z,6.83
2019-03-31T09:27:45.797Z,6.40
2019-03-31T09:30:17.716Z,6.37
2019-03-31T09:32:48.171Z,7.27
2019-03-31T09:35:18.678Z,7.00
2019-03-31T09:37:49.081Z,7.00
2019-03-31T09:40:19.661Z,6.77
2019-03-31T09:42:50.087Z,8.43
2019-03-31T09:45:20.693Z,6.30
2019-03-31T09:47:51.001Z,4.87
2019-03-31T09:50:21.608Z,7.23
2019-03-31T09:52:51.921Z,7.20
2019-03-31T09:55:23.191Z,6.23
2019-03-31T09:57:53.756Z,6.23
2019-03-31T10:00:43.188Z,5.93
2019-03-31T10:03:13.680Z,5.30
2019-03-31T10:05:47.577Z,4.93
2019-03-31T10:08:16.439Z,5.60
2019-03-31T10:10:46.937Z,6.63
2019-03-31T10:13:18.599Z,6.23
2019-03-31T10:15:48.931Z,5.47
2019-03-31T10:18:19.431Z,5.43
2019-03-31T10:20:49.762Z,5.20
2019-03-31T10:23:20.178Z,9.03
2019-03-31T10:25:50.582Z,8.10
2019-03-31T10:28:21.000Z,6.70
2019-03-31T10:30:51.299Z,6.07
2019-03-31T10:33:21.652Z,5.90
2019-03-31T10:35:52.076Z,5.60
2019-03-31T10:38:22.495Z,5.60
2019-03-31T10:40:52.788Z,5.00
2019-03-31T10:43:23.220Z,4.73
2019-03-31T10:45:53.503Z,6.37
2019-03-31T10:48:23.836Z,4.77
2019-03-31T10:50:54.184Z,6.50
2019-03-31T10:53:24.543Z,5.10
2019-03-31T10:55:54.899Z,5.33
2019-03-31T10:58:25.215Z,4.83
2019-03-31T11:00:55.632Z,5.20
2019-03-31T11:03:25.989Z,4.70
2019-03-31T11:05:56.468Z,5.40
2019-03-31T11:08:26.890Z,4.37
2019-03-31T11:10:57.322Z,4.73
2019-03-31T11:13:27.695Z,4.97
2019-03-31T11:15:58.117Z,5.30
2019-03-31T11:18:28.528Z,6.10
2019-03-31T11:21:01.006Z,6.53
2019-03-31T11:23:31.960Z,6.13
2019-03-31T11:26:02.301Z,4.57
2019-03-31T11:28:32.619Z,5.67
2019-03-31T11:31:03.093Z,4.73
2019-03-31T11:33:33.393Z,6.00
2019-03-31T11:36:03.853Z,4.87
2019-03-31T11:38:34.208Z,4.53
2019-03-31T11:41:04.642Z,5.03
2019-03-31T11:43:34.993Z,5.40
2019-03-31T11:46:05.310Z,4.80
2019-03-31T11:48:35.611Z,4.47
2019-03-31T11:51:06.065Z,6.53
2019-03-31T11:53:36.468Z,4.80
2019-03-31T11:56:06.810Z,4.50
2019-03-31T11:58:37.135Z,4.60
2019-03-31T12:01:07.688Z,4.10
2019-03-31T12:03:38.024Z,4.20
2019-03-31T12:06:11.117Z,5.23
2019-03-31T12:08:40.370Z,4.40
2019-03-31T12:11:10.764Z,5.10
2019-03-31T12:13:41.140Z,4.47
2019-03-31T12:16:11.496Z,4.43
2019-03-31T12:18:41.878Z,5.00
2019-03-31T12:21:12.244Z,4.07
2019-03-31T12:23:42.681Z,5.70
2019-03-31T12:26:13.044Z,4.43
2019-03-31T12:28:43.442Z,4.77
2019-03-31T12:31:13.770Z,4.80
2019-03-31T12:33:44.117Z,5.63
2019-03-31T12:36:14.759Z,5.13
2019-03-31T12:38:45.043Z,5.17
2019-03-31T12:41:15.427Z,4.93
2019-03-31T12:43:45.840Z,5.67
2019-03-31T12:46:16.300Z,6.70
2019-03-31T12:48:46.590Z,4.70
2019-03-31T12:51:16.978Z,4.43
2019-03-31T12:53:50.855Z,5.00
2019-03-31T12:56:19.432Z,6.47
2019-03-31T12:58:49.840Z,5.40
2019-03-31T13:01:20.271Z,5.90
2019-03-31T13:03:50.608Z,6.23
2019-03-31T13:06:21.000Z,5.10
2019-03-31T13:08:51.303Z,6.30
2019-03-31T13:11:21.646Z,5.83
2019-03-31T13:13:52.009Z,6.70
2019-03-31T13:16:22.332Z,6.90
2019-03-31T13:18:52.690Z,7.93
2019-03-31T13:21:22.989Z,7.10
2019-03-31T13:23:53.456Z,5.90
2019-03-31T13:26:23.844Z,5.63
2019-03-31T13:28:54.226Z,6.03
2019-03-31T13:31:24.533Z,6.20
2019-03-31T13:33:54.917Z,6.10
2019-03-31T13:36:25.688Z,8.80
2019-03-31T13:38:56.029Z,6.03
2019-03-31T13:41:26.511Z,6.10
2019-03-31T13:43:57.059Z,6.00
2019-03-31T13:46:27.423Z,5.93
2019-03-31T13:48:57.754Z,6.83
2019-03-31T13:51:28.191Z,6.50
2019-03-31T13:53:58.588Z,7.40
2019-03-31T13:56:30.099Z,6.57
2019-03-31T13:59:01.271Z,6.87
2019-03-31T14:01:31.609Z,7.90
2019-03-31T14:04:03.684Z,8.73
2019-03-31T14:06:34.042Z,6.73
2019-03-31T14:09:06.677Z,7.77
2019-03-31T14:11:37.083Z,7.73
2019-03-31T14:14:07.595Z,7.67
2019-03-31T14:16:37.953Z,8.13
2019-03-31T14:19:08.319Z,6.93
2019-03-31T14:21:40.068Z,6.53
2019-03-31T14:24:10.724Z,7.07
2019-03-31T14:26:41.069Z,7.03
2019-03-31T14:29:11.455Z,8.90
2019-03-31T14:31:41.801Z,6.90
2019-03-31T14:34:12.157Z,7.00
2019-03-31T14:36:42.525Z,6.90
2019-03-31T14:39:12.861Z,7.37
2019-03-31T14:41:43.182Z,8.37
2019-03-31T14:44:13.516Z,10.00
2019-03-31T14:46:43.871Z,10.37
2019-03-31T14:49:14.193Z,8.23
2019-03-31T14:51:44.611Z,9.10
2019-03-31T14:54:15.020Z,8.23
2019-03-31T14:56:45.323Z,7.13
2019-03-31T14:59:15.699Z,8.47
2019-03-31T15:01:46.056Z,7.87
2019-03-31T15:04:16.453Z,7.97
2019-03-31T15:06:46.818Z,8.00
2019-03-31T15:09:17.259Z,7.53
2019-03-31T15:11:47.745Z,7.37
2019-03-31T15:14:18.120Z,8.10
2019-03-31T15:16:48.701Z,12.63
2019-03-31T15:19:19.027Z,11.57
2019-03-31T15:21:49.460Z,11.77
2019-03-31T15:24:19.829Z,12.77
2019-03-31T15:26:50.205Z,12.37
2019-03-31T15:29:20.631Z,14.43
2019-03-31T15:31:50.943Z,11.70
2019-03-31T15:34:21.280Z,13.50
2019-03-31T15:36:51.692Z,13.03
2019-03-31T15:39:22.028Z,12.60
2019-03-31T15:41:52.396Z,12.27
2019-03-31T15:44:22.698Z,12.00
2019-03-31T15:46:53.036Z,11.90
2019-03-31T15:49:23.396Z,11.90
2019-03-31T15:51:53.762Z,11.00
2019-03-31T15:54:24.123Z,10.17
2019-03-31T15:56:54.493Z,10.60
2019-03-31T15:59:24.829Z,11.87
2019-03-31T16:01:55.212Z,11.13
2019-03-31T16:04:25.588Z,10.37
2019-03-31T16:06:56.001Z,10.40
2019-03-31T16:09:25.809Z,10.50
2019-03-31T16:11:55.594Z,11.33
2019-03-31T16:14:25.433Z,10.83
2019-03-31T16:16:55.268Z,11.30
2019-03-31T16:19:25.080Z,10.27
2019-03-31T16:21:54.985Z,9.27
2019-03-31T16:24:36.468Z,8.87
2019-03-31T16:27:06.359Z,8.73
2019-03-31T16:29:36.185Z,10.13
2019-03-31T16:32:06.003Z,9.47
2019-03-31T16:34:35.816Z,9.80
2019-03-31T16:37:05.761Z,8.13
2019-03-31T16:39:37.929Z,9.10
2019-03-31T16:42:07.021Z,8.70
2019-03-31T16:44:36.872Z,7.70
2019-03-31T16:47:06.657Z,8.20
2019-03-31T16:49:36.527Z,8.90
2019-03-31T16:52:06.330Z,7.43
2019-03-31T16:54:36.110Z,6.70
2019-03-31T16:57:05.884Z,6.80
2019-03-31T16:59:35.685Z,8.13
2019-03-31T17:02:05.602Z,9.13
2019-03-31T17:04:35.522Z,6.53
2019-03-31T17:07:05.390Z,5.77
2019-03-31T17:09:35.185Z,6.33
2019-03-31T17:12:05.148Z,7.57
2019-03-31T17:14:34.960Z,7.27
2019-03-31T17:17:04.868Z,6.67
2019-03-31T17:19:34.710Z,5.90
2019-03-31T17:22:05.455Z,5.77
2019-03-31T17:24:35.229Z,6.27
2019-03-31T17:27:05.020Z,6.37
2019-03-31T17:29:34.881Z,7.50
2019-03-31T17:32:04.877Z,7.63
2019-03-31T17:34:34.624Z,7.30
2019-03-31T17:37:04.417Z,6.40
2019-03-31T17:39:34.212Z,6.00
2019-03-31T17:42:04.071Z,6.17
2019-03-31T17:44:33.918Z,6.50
2019-03-31T17:47:03.840Z,6.00
2019-03-31T17:49:33.696Z,7.83
2019-03-31T17:52:03.445Z,8.57
2019-03-31T17:54:33.316Z,14.60
2019-03-31T17:57:03.198Z,17.80
2019-03-31T17:59:32.960Z,14.60
2019-03-31T18:02:02.751Z,15.83
2019-03-31T18:04:32.571Z,18.20
2019-03-31T18:07:02.535Z,13.17
2019-03-31T18:09:32.407Z,12.77
2019-03-31T18:12:02.257Z,15.47
2019-03-31T18:14:32.069Z,19.47
2019-03-31T18:17:01.905Z,18.53
2019-03-31T18:19:31.737Z,19.43
2019-03-31T18:22:15.541Z,20.13
2019-03-31T18:24:33.134Z,23.33
2019-03-31T18:27:02.900Z,17.50
2019-03-31T18:29:32.763Z,16.10
2019-03-31T18:32:02.593Z,15.17
2019-03-31T18:34:32.439Z,13.30
2019-03-31T18:37:02.436Z,13.30
2019-03-31T18:39:32.356Z,11.73
2019-03-31T18:42:02.210Z,17.67
2019-03-31T18:44:32.038Z,14.60
2019-03-31T18:47:01.907Z,16.80
2019-03-31T18:49:31.707Z,13.60
2019-03-31T18:52:01.496Z,15.60
2019-03-31T18:54:51.863Z,15.13
2019-03-31T18:57:40.581Z,24.90
2019-03-31T19:00:27.857Z,30.30
2019-03-31T19:03:22.430Z,24.17
2019-03-31T19:06:05.855Z,18.10
2019-03-31T19:08:45.130Z,19.77
2019-03-31T19:11:39.980Z,14.87
2019-03-31T19:14:27.205Z,17.23
2019-03-31T19:17:24.879Z,15.07
2019-03-31T19:20:28.834Z,14.00
2019-03-31T19:23:16.102Z,14.43
2019-03-31T19:26:07.100Z,14.47
2019-03-31T19:28:55.885Z,14.77
2019-03-31T19:31:47.493Z,12.23
2019-03-31T19:34:45.193Z,13.57
2019-03-31T19:37:35.269Z,13.23
2019-03-31T19:40:23.177Z,12.17
2019-03-31T19:43:17.846Z,12.20
2019-03-31T19:46:12.225Z,12.07
2019-03-31T19:48:59.369Z,14.10
2019-03-31T19:51:47.024Z,11.40
2019-03-31T19:54:31.836Z,11.83
2019-03-31T19:57:38.814Z,13.00
2019-03-31T20:00:17.545Z,12.17
2019-03-31T20:03:09.337Z,17.60
2019-03-31T20:06:03.792Z,13.67
2019-03-31T20:08:55.265Z,13.57
2019-03-31T20:11:44.089Z,13.90
2019-03-31T20:14:31.651Z,11.63
2019-03-31T20:17:20.378Z,14.93
2019-03-31T20:20:21.037Z,16.07
2019-03-31T20:23:08.344Z,12.80
2019-03-31T20:25:57.009Z,17.67
2019-03-31T20:28:52.579Z,12.80
2019-03-31T20:31:41.288Z,13.53
2019-03-31T20:34:36.206Z,12.70
2019-03-31T20:37:23.071Z,13.10
2019-03-31T20:40:18.051Z,16.07
2019-03-31T20:43:01.709Z,16.27
2019-03-31T20:45:31.529Z,15.63
2019-03-31T20:48:01.269Z,15.23
2019-03-31T20:50:31.232Z,14.57
2019-03-31T20:53:01.103Z,15.10
2019-03-31T20:55:30.931Z,15.03
2019-03-31T20:58:01.164Z,14.87
2019-03-31T21:00:30.990Z,14.53
2019-03-31T21:03:00.778Z,16.37
2019-03-31T21:05:30.767Z,15.07
2019-03-31T21:08:00.584Z,13.67
2019-03-31T21:10:30.383Z,14.53
2019-03-31T21:13:00.236Z,14.83
2019-03-31T21:15:30.044Z,11.90
2019-03-31T21:17:59.941Z,16.13
2019-03-31T21:20:29.689Z,15.43
2019-03-31T21:22:59.526Z,13.03
2019-03-31T21:25:29.363Z,14.23
2019-03-31T21:27:59.289Z,16.87
2019-03-31T21:30:29.153Z,15.47
2019-03-31T21:32:58.956Z,14.80
2019-03-31T21:35:28.724Z,15.20
2019-03-31T21:37:58.459Z,16.37
2019-03-31T21:40:28.310Z,17.40
2019-03-31T21:42:58.092Z,16.90
2019-03-31T21:45:27.939Z,19.90
2019-03-31T21:47:57.733Z,18.83
2019-03-31T21:50:27.628Z,18.87
2019-03-31T21:52:57.551Z,19.17
2019-03-31T21:55:27.350Z,18.07
2019-03-31T21:57:57.134Z,20.63
2019-03-31T22:00:46.242Z,20.30
2019-03-31T22:03:16.083Z,21.27
2019-03-31T22:05:45.941Z,21.57
2019-03-31T22:08:15.811Z,21.37
2019-03-31T22:10:45.663Z,20.73
2019-03-31T22:13:15.667Z,20.37
2019-03-31T22:15:45.468Z,21.63
2019-03-31T22:18:15.282Z,21.50
2019-03-31T22:20:47.254Z,22.33
2019-03-31T22:26:04.153Z,21.97
2019-03-31T22:28:33.949Z,20.77
2019-03-31T22:31:03.826Z,22.63
2019-03-31T22:33:33.710Z,21.47
2019-03-31T22:36:21.896Z,22.03
2019-03-31T22:38:52.677Z,21.90
2019-03-31T22:41:22.796Z,21.70
2019-03-31T22:43:52.599Z,21.23
2019-03-31T22:46:22.518Z,22.07
2019-03-31T22:48:52.334Z,22.23
2019-03-31T22:51:22.771Z,22.00
2019-03-31T22:53:52.615Z,22.47
2019-03-31T22:56:22.457Z,22.67
2019-03-31T22:58:52.320Z,21.63
2019-03-31T23:01:22.158Z,22.13
2019-03-31T23:03:52.002Z,23.50
2019-03-31T23:06:21.885Z,22.10
2019-03-31T23:08:51.725Z,21.93
2019-03-31T23:11:21.548Z,23.80
2019-03-31T23:13:51.338Z,23.73
2019-03-31T23:16:21.217Z,23.70
2019-03-31T23:18:51.103Z,22.63
2019-03-31T23:21:20.926Z,23.23
2019-03-31T23:23:50.731Z,22.40
2019-03-31T23:26:20.537Z,23.30
2019-03-31T23:28:50.363Z,23.27
2019-03-31T23:31:20.177Z,24.57
2019-03-31T23:33:50.136Z,24.03
2019-03-31T23:36:20.047Z,23.63
2019-03-31T23:38:49.918Z,21.90
2019-03-31T23:41:19.704Z,23.73
2019-03-31T23:43:49.589Z,23.83
2019-03-31T23:46:19.354Z,22.50
2019-03-31T23:48:49.281Z,23.97
2019-03-31T23:51:19.096Z,23.03
2019-03-31T23:53:48.912Z,22.60
2019-03-31T23:56:18.768Z,22.50
2019-03-31T23:58:48.579Z,22.27
